Current Weather

Doha

Doha, Qatar (OTHH)

Report from: Sunday, February 25, 2024 1:00 AM UTC
Current time: Sunday, February 25, 2024 1:19 AM UTC

Nearby weather – Weather history – Daily summaries
Weather forecast

Temperature22.0°C (71.6°F)
Dew point14.0°C (57.2°F)
Winds 3 kts (1.5 m/s, 3.5 mph) East (100°)
Clouds Sky clear
Altimeter29.77 in.Hg (1008 mB)
Relative humidity61 %
Density altitude1,215 ft. (370 m)
Remarks Fully automated report
Ceiling and visibility OK
No significant changes expected in the next two hours
Flight conditions Visual Meteorological Conditions
Raw dataOTHH 250100Z AUTO 10003KT CAVOK 22/14 Q1008 NOSIG
An error has occurred. This application may no longer respond until reloaded. Reload 🗙